sensor_id;sensor_type;location;lat;lon;timestamp;P1;durP1;ratioP1;P2;durP2;ratioP2
19877;SDS011;10101;52.204;9.910;2023-04-03T00:01:30;3.97;;;1.07;;
19877;SDS011;10101;52.204;9.910;2023-04-03T00:03:57;2.40;;;1.00;;
19877;SDS011;10101;52.204;9.910;2023-04-03T00:06:24;3.80;;;1.20;;
19877;SDS011;10101;52.204;9.910;2023-04-03T00:08:53;4.30;;;1.13;;
19877;SDS011;10101;52.204;9.910;2023-04-03T00:11:20;4.40;;;1.13;;
19877;SDS011;10101;52.204;9.910;2023-04-03T00:13:47;3.17;;;0.90;;
19877;SDS011;10101;52.204;9.910;2023-04-03T00:16:13;2.53;;;0.87;;
19877;SDS011;10101;52.204;9.910;2023-04-03T00:18:40;4.87;;;1.00;;
19877;SDS011;10101;52.204;9.910;2023-04-03T00:21:08;3.27;;;1.10;;
19877;SDS011;10101;52.204;9.910;2023-04-03T00:23:38;4.23;;;1.20;;
19877;SDS011;10101;52.204;9.910;2023-04-03T00:26:06;2.27;;;0.93;;
19877;SDS011;10101;52.204;9.910;2023-04-03T00:28:32;5.77;;;1.30;;
19877;SDS011;10101;52.204;9.910;2023-04-03T00:31:00;2.20;;;1.10;;
19877;SDS011;10101;52.204;9.910;2023-04-03T00:33:26;3.90;;;1.10;;
19877;SDS011;10101;52.204;9.910;2023-04-03T00:35:53;2.43;;;0.90;;
19877;SDS011;10101;52.204;9.910;2023-04-03T00:38:20;0.70;;;0.70;;
19877;SDS011;10101;52.204;9.910;2023-04-03T00:40:47;1.27;;;0.80;;
19877;SDS011;10101;52.204;9.910;2023-04-03T00:43:17;2.07;;;1.07;;
19877;SDS011;10101;52.204;9.910;2023-04-03T00:45:46;2.03;;;1.10;;
19877;SDS011;10101;52.204;9.910;2023-04-03T00:48:15;1.97;;;1.00;;
19877;SDS011;10101;52.204;9.910;2023-04-03T00:50:45;3.63;;;1.20;;
19877;SDS011;10101;52.204;9.910;2023-04-03T00:53:14;1.90;;;1.10;;
19877;SDS011;10101;52.204;9.910;2023-04-03T00:55:43;2.93;;;1.03;;
19877;SDS011;10101;52.204;9.910;2023-04-03T00:58:12;2.77;;;1.00;;
19877;SDS011;10101;52.204;9.910;2023-04-03T01:00:44;2.33;;;1.30;;
19877;SDS011;10101;52.204;9.910;2023-04-03T01:03:16;4.20;;;1.40;;
19877;SDS011;10101;52.204;9.910;2023-04-03T01:05:43;2.03;;;1.20;;
19877;SDS011;10101;52.204;9.910;2023-04-03T01:08:10;3.00;;;1.13;;
19877;SDS011;10101;52.204;9.910;2023-04-03T01:10:37;4.10;;;1.40;;
19877;SDS011;10101;52.204;9.910;2023-04-03T01:13:18;4.93;;;1.27;;
19877;SDS011;10101;52.204;9.910;2023-04-03T01:15:47;2.33;;;1.00;;
19877;SDS011;10101;52.204;9.910;2023-04-03T01:18:14;3.87;;;1.03;;
19877;SDS011;10101;52.204;9.910;2023-04-03T01:20:55;2.87;;;1.37;;
19877;SDS011;10101;52.204;9.910;2023-04-03T01:23:48;4.13;;;1.40;;
19877;SDS011;10101;52.204;9.910;2023-04-03T01:26:22;5.57;;;1.10;;
19877;SDS011;10101;52.204;9.910;2023-04-03T01:28:52;2.70;;;1.30;;
19877;SDS011;10101;52.204;9.910;2023-04-03T01:31:20;6.40;;;1.30;;
19877;SDS011;10101;52.204;9.910;2023-04-03T01:33:52;2.83;;;1.10;;
19877;SDS011;10101;52.204;9.910;2023-04-03T01:36:20;3.30;;;1.10;;
19877;SDS011;10101;52.204;9.910;2023-04-03T01:38:49;1.13;;;1.00;;
19877;SDS011;10101;52.204;9.910;2023-04-03T01:41:16;3.33;;;1.20;;
19877;SDS011;10101;52.204;9.910;2023-04-03T01:43:45;2.07;;;1.10;;
19877;SDS011;10101;52.204;9.910;2023-04-03T01:46:13;4.27;;;1.30;;
19877;SDS011;10101;52.204;9.910;2023-04-03T01:48:40;2.47;;;1.00;;
19877;SDS011;10101;52.204;9.910;2023-04-03T01:51:08;2.67;;;1.27;;
19877;SDS011;10101;52.204;9.910;2023-04-03T01:53:35;3.63;;;1.10;;
19877;SDS011;10101;52.204;9.910;2023-04-03T01:56:02;1.23;;;0.80;;
19877;SDS011;10101;52.204;9.910;2023-04-03T01:58:29;1.53;;;0.90;;
19877;SDS011;10101;52.204;9.910;2023-04-03T02:00:56;5.33;;;1.27;;
19877;SDS011;10101;52.204;9.910;2023-04-03T02:03:22;4.10;;;1.50;;
19877;SDS011;10101;52.204;9.910;2023-04-03T02:05:50;3.70;;;1.00;;
19877;SDS011;10101;52.204;9.910;2023-04-03T02:08:18;5.83;;;1.20;;
19877;SDS011;10101;52.204;9.910;2023-04-03T02:10:46;3.80;;;1.30;;
19877;SDS011;10101;52.204;9.910;2023-04-03T02:13:13;2.70;;;1.23;;
19877;SDS011;10101;52.204;9.910;2023-04-03T02:15:41;3.53;;;1.43;;
19877;SDS011;10101;52.204;9.910;2023-04-03T02:18:07;3.23;;;1.30;;
19877;SDS011;10101;52.204;9.910;2023-04-03T02:20:34;3.93;;;1.37;;
19877;SDS011;10101;52.204;9.910;2023-04-03T02:23:01;1.27;;;0.90;;
19877;SDS011;10101;52.204;9.910;2023-04-03T02:25:31;3.33;;;1.07;;
19877;SDS011;10101;52.204;9.910;2023-04-03T02:27:58;4.67;;;1.33;;
19877;SDS011;10101;52.204;9.910;2023-04-03T02:30:25;1.60;;;0.90;;
19877;SDS011;10101;52.204;9.910;2023-04-03T02:32:52;5.83;;;1.37;;
19877;SDS011;10101;52.204;9.910;2023-04-03T02:35:19;4.53;;;1.20;;
19877;SDS011;10101;52.204;9.910;2023-04-03T02:37:46;3.67;;;1.00;;
19877;SDS011;10101;52.204;9.910;2023-04-03T02:40:12;2.37;;;1.00;;
19877;SDS011;10101;52.204;9.910;2023-04-03T02:42:40;4.73;;;1.13;;
19877;SDS011;10101;52.204;9.910;2023-04-03T02:45:07;3.70;;;1.17;;
19877;SDS011;10101;52.204;9.910;2023-04-03T02:47:34;3.50;;;1.27;;
19877;SDS011;10101;52.204;9.910;2023-04-03T02:50:01;2.73;;;1.20;;
19877;SDS011;10101;52.204;9.910;2023-04-03T02:52:28;2.50;;;1.20;;
19877;SDS011;10101;52.204;9.910;2023-04-03T02:54:55;4.57;;;0.93;;
19877;SDS011;10101;52.204;9.910;2023-04-03T02:57:22;2.00;;;0.70;;
19877;SDS011;10101;52.204;9.910;2023-04-03T02:59:50;4.37;;;1.00;;
19877;SDS011;10101;52.204;9.910;2023-04-03T03:02:16;2.07;;;0.97;;
19877;SDS011;10101;52.204;9.910;2023-04-03T03:04:43;1.37;;;0.90;;
19877;SDS011;10101;52.204;9.910;2023-04-03T03:07:10;2.37;;;1.30;;
19877;SDS011;10101;52.204;9.910;2023-04-03T03:09:37;2.63;;;1.10;;
19877;SDS011;10101;52.204;9.910;2023-04-03T03:12:03;1.73;;;1.00;;
19877;SDS011;10101;52.204;9.910;2023-04-03T03:14:30;1.90;;;1.07;;
19877;SDS011;10101;52.204;9.910;2023-04-03T03:16:58;3.00;;;1.00;;
19877;SDS011;10101;52.204;9.910;2023-04-03T03:19:25;2.20;;;1.20;;
19877;SDS011;10101;52.204;9.910;2023-04-03T03:21:52;3.40;;;1.20;;
19877;SDS011;10101;52.204;9.910;2023-04-03T03:24:19;5.03;;;1.00;;
19877;SDS011;10101;52.204;9.910;2023-04-03T03:26:45;5.13;;;1.30;;
19877;SDS011;10101;52.204;9.910;2023-04-03T03:29:12;3.53;;;1.03;;
19877;SDS011;10101;52.204;9.910;2023-04-03T03:31:39;4.10;;;1.40;;
19877;SDS011;10101;52.204;9.910;2023-04-03T03:34:07;4.57;;;1.10;;
19877;SDS011;10101;52.204;9.910;2023-04-03T03:36:34;6.53;;;1.23;;
19877;SDS011;10101;52.204;9.910;2023-04-03T03:39:01;2.93;;;1.20;;
19877;SDS011;10101;52.204;9.910;2023-04-03T03:41:28;3.57;;;1.10;;
19877;SDS011;10101;52.204;9.910;2023-04-03T03:43:55;3.93;;;1.10;;
19877;SDS011;10101;52.204;9.910;2023-04-03T03:46:22;4.23;;;1.40;;
19877;SDS011;10101;52.204;9.910;2023-04-03T03:48:48;2.70;;;1.10;;
19877;SDS011;10101;52.204;9.910;2023-04-03T03:51:16;4.80;;;1.27;;
19877;SDS011;10101;52.204;9.910;2023-04-03T03:53:43;5.80;;;1.40;;
19877;SDS011;10101;52.204;9.910;2023-04-03T03:56:10;3.60;;;1.43;;
19877;SDS011;10101;52.204;9.910;2023-04-03T03:58:37;3.57;;;1.27;;
19877;SDS011;10101;52.204;9.910;2023-04-03T04:01:04;3.03;;;1.50;;
19877;SDS011;10101;52.204;9.910;2023-04-03T04:03:32;4.63;;;1.83;;
19877;SDS011;10101;52.204;9.910;2023-04-03T04:05:59;3.27;;;1.40;;
19877;SDS011;10101;52.204;9.910;2023-04-03T04:08:27;2.73;;;1.50;;
19877;SDS011;10101;52.204;9.910;2023-04-03T04:10:54;3.90;;;1.40;;
19877;SDS011;10101;52.204;9.910;2023-04-03T04:13:21;3.33;;;1.70;;
19877;SDS011;10101;52.204;9.910;2023-04-03T04:15:48;4.30;;;1.30;;
19877;SDS011;10101;52.204;9.910;2023-04-03T04:18:15;3.83;;;1.70;;
19877;SDS011;10101;52.204;9.910;2023-04-03T04:20:44;2.43;;;1.03;;
19877;SDS011;10101;52.204;9.910;2023-04-03T04:23:11;2.90;;;1.30;;
19877;SDS011;10101;52.204;9.910;2023-04-03T04:25:39;2.93;;;1.20;;
19877;SDS011;10101;52.204;9.910;2023-04-03T04:28:06;2.03;;;1.33;;
19877;SDS011;10101;52.204;9.910;2023-04-03T04:30:33;2.77;;;1.27;;
19877;SDS011;10101;52.204;9.910;2023-04-03T04:32:59;6.97;;;1.40;;
19877;SDS011;10101;52.204;9.910;2023-04-03T04:35:26;3.90;;;1.40;;
19877;SDS011;10101;52.204;9.910;2023-04-03T04:37:53;2.73;;;1.57;;
19877;SDS011;10101;52.204;9.910;2023-04-03T04:40:20;2.20;;;1.37;;
19877;SDS011;10101;52.204;9.910;2023-04-03T04:42:48;3.97;;;1.67;;
19877;SDS011;10101;52.204;9.910;2023-04-03T04:45:15;3.30;;;1.47;;
19877;SDS011;10101;52.204;9.910;2023-04-03T04:47:41;5.20;;;1.60;;
19877;SDS011;10101;52.204;9.910;2023-04-03T04:50:09;1.93;;;1.27;;
19877;SDS011;10101;52.204;9.910;2023-04-03T04:52:37;5.83;;;1.60;;
19877;SDS011;10101;52.204;9.910;2023-04-03T04:55:04;4.03;;;1.90;;
19877;SDS011;10101;52.204;9.910;2023-04-03T04:57:32;4.90;;;1.90;;
19877;SDS011;10101;52.204;9.910;2023-04-03T05:00:00;3.03;;;1.70;;
19877;SDS011;10101;52.204;9.910;2023-04-03T05:02:27;4.77;;;1.77;;
19877;SDS011;10101;52.204;9.910;2023-04-03T05:04:54;4.83;;;1.80;;
19877;SDS011;10101;52.204;9.910;2023-04-03T05:07:21;3.87;;;1.80;;
19877;SDS011;10101;52.204;9.910;2023-04-03T05:09:47;4.40;;;1.67;;
19877;SDS011;10101;52.204;9.910;2023-04-03T05:12:14;4.47;;;1.37;;
19877;SDS011;10101;52.204;9.910;2023-04-03T05:14:41;2.70;;;1.47;;
19877;SDS011;10101;52.204;9.910;2023-04-03T05:17:09;4.00;;;1.20;;
19877;SDS011;10101;52.204;9.910;2023-04-03T05:19:36;5.20;;;1.63;;
19877;SDS011;10101;52.204;9.910;2023-04-03T05:22:03;1.83;;;1.00;;
19877;SDS011;10101;52.204;9.910;2023-04-03T05:24:29;5.13;;;1.63;;
19877;SDS011;10101;52.204;9.910;2023-04-03T05:26:56;4.53;;;1.93;;
19877;SDS011;10101;52.204;9.910;2023-04-03T05:29:23;5.77;;;2.13;;
19877;SDS011;10101;52.204;9.910;2023-04-03T05:31:49;5.70;;;1.93;;
19877;SDS011;10101;52.204;9.910;2023-04-03T05:34:17;4.27;;;1.70;;
19877;SDS011;10101;52.204;9.910;2023-04-03T05:36:44;5.43;;;1.90;;
19877;SDS011;10101;52.204;9.910;2023-04-03T05:39:11;4.17;;;2.00;;
19877;SDS011;10101;52.204;9.910;2023-04-03T05:41:39;3.80;;;1.50;;
19877;SDS011;10101;52.204;9.910;2023-04-03T05:44:05;11.20;;;5.37;;
19877;SDS011;10101;52.204;9.910;2023-04-03T05:46:32;7.13;;;4.23;;
19877;SDS011;10101;52.204;9.910;2023-04-03T05:48:59;3.60;;;2.83;;
19877;SDS011;10101;52.204;9.910;2023-04-03T05:51:28;6.37;;;2.50;;
19877;SDS011;10101;52.204;9.910;2023-04-03T05:53:59;5.93;;;1.77;;
19877;SDS011;10101;52.204;9.910;2023-04-03T05:56:30;3.73;;;1.70;;
19877;SDS011;10101;52.204;9.910;2023-04-03T05:58:57;2.00;;;1.20;;
19877;SDS011;10101;52.204;9.910;2023-04-03T06:01:24;5.20;;;1.20;;
19877;SDS011;10101;52.204;9.910;2023-04-03T06:03:51;5.60;;;1.33;;
19877;SDS011;10101;52.204;9.910;2023-04-03T06:06:19;4.73;;;1.50;;
19877;SDS011;10101;52.204;9.910;2023-04-03T06:08:48;2.17;;;1.50;;
19877;SDS011;10101;52.204;9.910;2023-04-03T06:11:15;2.60;;;1.40;;
19877;SDS011;10101;52.204;9.910;2023-04-03T06:13:42;2.57;;;1.33;;
19877;SDS011;10101;52.204;9.910;2023-04-03T06:16:10;5.40;;;1.60;;
19877;SDS011;10101;52.204;9.910;2023-04-03T06:18:40;4.93;;;1.33;;
19877;SDS011;10101;52.204;9.910;2023-04-03T06:21:07;3.17;;;1.63;;
19877;SDS011;10101;52.204;9.910;2023-04-03T06:23:34;4.70;;;1.50;;
19877;SDS011;10101;52.204;9.910;2023-04-03T06:26:02;4.03;;;1.40;;
19877;SDS011;10101;52.204;9.910;2023-04-03T06:28:29;7.17;;;1.70;;
19877;SDS011;10101;52.204;9.910;2023-04-03T06:30:55;3.23;;;1.50;;
19877;SDS011;10101;52.204;9.910;2023-04-03T06:33:22;8.83;;;1.77;;
19877;SDS011;10101;52.204;9.910;2023-04-03T06:35:49;4.63;;;1.27;;
19877;SDS011;10101;52.204;9.910;2023-04-03T06:38:21;5.83;;;1.63;;
19877;SDS011;10101;52.204;9.910;2023-04-03T06:40:48;2.80;;;1.47;;
19877;SDS011;10101;52.204;9.910;2023-04-03T06:43:17;5.63;;;1.27;;
19877;SDS011;10101;52.204;9.910;2023-04-03T06:45:45;2.97;;;1.10;;
19877;SDS011;10101;52.204;9.910;2023-04-03T06:48:13;7.23;;;1.87;;
19877;SDS011;10101;52.204;9.910;2023-04-03T06:50:40;3.43;;;1.50;;
19877;SDS011;10101;52.204;9.910;2023-04-03T06:53:08;7.17;;;1.70;;
19877;SDS011;10101;52.204;9.910;2023-04-03T06:55:35;2.83;;;1.50;;
19877;SDS011;10101;52.204;9.910;2023-04-03T06:58:01;5.60;;;1.33;;
19877;SDS011;10101;52.204;9.910;2023-04-03T07:00:30;4.90;;;1.57;;
19877;SDS011;10101;52.204;9.910;2023-04-03T07:02:57;6.67;;;1.70;;
19877;SDS011;10101;52.204;9.910;2023-04-03T07:05:24;3.70;;;1.00;;
19877;SDS011;10101;52.204;9.910;2023-04-03T07:07:51;3.57;;;1.50;;
19877;SDS011;10101;52.204;9.910;2023-04-03T07:10:18;4.67;;;1.73;;
19877;SDS011;10101;52.204;9.910;2023-04-03T07:12:45;3.33;;;1.20;;
19877;SDS011;10101;52.204;9.910;2023-04-03T07:15:12;7.20;;;1.70;;
19877;SDS011;10101;52.204;9.910;2023-04-03T07:17:40;8.83;;;1.87;;
19877;SDS011;10101;52.204;9.910;2023-04-03T07:20:08;4.17;;;1.50;;
19877;SDS011;10101;52.204;9.910;2023-04-03T07:22:35;5.90;;;1.60;;
19877;SDS011;10101;52.204;9.910;2023-04-03T07:25:02;5.40;;;1.50;;
19877;SDS011;10101;52.204;9.910;2023-04-03T07:27:32;4.97;;;1.70;;
19877;SDS011;10101;52.204;9.910;2023-04-03T07:29:59;4.30;;;1.30;;
19877;SDS011;10101;52.204;9.910;2023-04-03T07:32:25;5.97;;;1.77;;
19877;SDS011;10101;52.204;9.910;2023-04-03T07:34:54;3.90;;;1.40;;
19877;SDS011;10101;52.204;9.910;2023-04-03T07:37:20;6.53;;;1.63;;
19877;SDS011;10101;52.204;9.910;2023-04-03T07:39:47;4.33;;;1.37;;
19877;SDS011;10101;52.204;9.910;2023-04-03T07:42:14;3.57;;;1.20;;
19877;SDS011;10101;52.204;9.910;2023-04-03T07:44:41;3.87;;;1.40;;
19877;SDS011;10101;52.204;9.910;2023-04-03T07:47:08;5.27;;;1.30;;
19877;SDS011;10101;52.204;9.910;2023-04-03T07:49:35;3.87;;;1.57;;
19877;SDS011;10101;52.204;9.910;2023-04-03T07:52:05;6.13;;;1.60;;
19877;SDS011;10101;52.204;9.910;2023-04-03T07:54:34;8.97;;;1.40;;
19877;SDS011;10101;52.204;9.910;2023-04-03T07:57:00;4.20;;;1.47;;
19877;SDS011;10101;52.204;9.910;2023-04-03T07:59:27;4.77;;;1.33;;
19877;SDS011;10101;52.204;9.910;2023-04-03T08:01:54;3.43;;;1.40;;
19877;SDS011;10101;52.204;9.910;2023-04-03T08:04:21;10.20;;;2.03;;
19877;SDS011;10101;52.204;9.910;2023-04-03T08:06:48;3.67;;;1.40;;
19877;SDS011;10101;52.204;9.910;2023-04-03T08:09:17;2.73;;;1.27;;
19877;SDS011;10101;52.204;9.910;2023-04-03T08:11:44;4.67;;;1.30;;
19877;SDS011;10101;52.204;9.910;2023-04-03T08:14:12;3.53;;;1.73;;
19877;SDS011;10101;52.204;9.910;2023-04-03T08:16:41;4.90;;;1.20;;
19877;SDS011;10101;52.204;9.910;2023-04-03T08:19:08;3.33;;;1.30;;
19877;SDS011;10101;52.204;9.910;2023-04-03T08:21:35;3.33;;;0.73;;
19877;SDS011;10101;52.204;9.910;2023-04-03T08:24:03;3.37;;;1.47;;
19877;SDS011;10101;52.204;9.910;2023-04-03T08:26:32;4.60;;;1.40;;
19877;SDS011;10101;52.204;9.910;2023-04-03T08:28:58;5.23;;;1.37;;
19877;SDS011;10101;52.204;9.910;2023-04-03T08:31:25;5.63;;;1.30;;
19877;SDS011;10101;52.204;9.910;2023-04-03T08:33:52;2.83;;;1.23;;
19877;SDS011;10101;52.204;9.910;2023-04-03T08:36:20;6.80;;;1.20;;
19877;SDS011;10101;52.204;9.910;2023-04-03T08:38:48;4.10;;;1.13;;
19877;SDS011;10101;52.204;9.910;2023-04-03T08:41:18;2.83;;;1.27;;
19877;SDS011;10101;52.204;9.910;2023-04-03T08:44:01;3.37;;;1.10;;
19877;SDS011;10101;52.204;9.910;2023-04-03T08:46:44;1.43;;;1.20;;
19877;SDS011;10101;52.204;9.910;2023-04-03T08:49:22;5.70;;;1.10;;
19877;SDS011;10101;52.204;9.910;2023-04-03T08:51:52;2.10;;;1.00;;
19877;SDS011;10101;52.204;9.910;2023-04-03T08:54:23;3.13;;;1.00;;
19877;SDS011;10101;52.204;9.910;2023-04-03T08:56:55;4.33;;;1.00;;
19877;SDS011;10101;52.204;9.910;2023-04-03T08:59:26;2.50;;;1.03;;
19877;SDS011;10101;52.204;9.910;2023-04-03T09:01:56;4.77;;;1.30;;
19877;SDS011;10101;52.204;9.910;2023-04-03T09:04:25;2.77;;;0.97;;
19877;SDS011;10101;52.204;9.910;2023-04-03T09:06:54;2.23;;;0.80;;
19877;SDS011;10101;52.204;9.910;2023-04-03T09:09:27;1.40;;;0.70;;
19877;SDS011;10101;52.204;9.910;2023-04-03T09:12:00;1.83;;;0.90;;
19877;SDS011;10101;52.204;9.910;2023-04-03T09:14:37;1.53;;;0.70;;
19877;SDS011;10101;52.204;9.910;2023-04-03T09:17:09;2.57;;;0.90;;
19877;SDS011;10101;52.204;9.910;2023-04-03T09:19:43;1.77;;;0.80;;
19877;SDS011;10101;52.204;9.910;2023-04-03T09:22:17;3.00;;;0.83;;
19877;SDS011;10101;52.204;9.910;2023-04-03T09:24:47;2.90;;;0.80;;
19877;SDS011;10101;52.204;9.910;2023-04-03T09:27:18;2.40;;;1.03;;
19877;SDS011;10101;52.204;9.910;2023-04-03T09:29:46;4.03;;;1.13;;
19877;SDS011;10101;52.204;9.910;2023-04-03T09:32:18;3.00;;;0.80;;
19877;SDS011;10101;52.204;9.910;2023-04-03T09:34:49;2.67;;;0.70;;
19877;SDS011;10101;52.204;9.910;2023-04-03T09:37:33;2.70;;;1.03;;
19877;SDS011;10101;52.204;9.910;2023-04-03T09:40:02;3.80;;;1.20;;
19877;SDS011;10101;52.204;9.910;2023-04-03T09:42:30;2.97;;;0.80;;
19877;SDS011;10101;52.204;9.910;2023-04-03T09:44:59;2.57;;;0.87;;
19877;SDS011;10101;52.204;9.910;2023-04-03T09:47:28;3.03;;;0.80;;
19877;SDS011;10101;52.204;9.910;2023-04-03T09:50:08;2.40;;;0.80;;
19877;SDS011;10101;52.204;9.910;2023-04-03T09:52:45;2.50;;;1.00;;
19877;SDS011;10101;52.204;9.910;2023-04-03T09:55:14;4.33;;;0.97;;
19877;SDS011;10101;52.204;9.910;2023-04-03T09:57:43;3.07;;;1.07;;
19877;SDS011;10101;52.204;9.910;2023-04-03T10:00:21;1.37;;;0.70;;
19877;SDS011;10101;52.204;9.910;2023-04-03T10:02:51;7.10;;;1.70;;
19877;SDS011;10101;52.204;9.910;2023-04-03T10:05:25;6.33;;;1.70;;
19877;SDS011;10101;52.204;9.910;2023-04-03T10:08:07;3.83;;;1.03;;
19877;SDS011;10101;52.204;9.910;2023-04-03T10:10:36;4.10;;;0.73;;
19877;SDS011;10101;52.204;9.910;2023-04-03T10:13:04;3.67;;;0.97;;
19877;SDS011;10101;52.204;9.910;2023-04-03T10:15:36;3.87;;;0.90;;
19877;SDS011;10101;52.204;9.910;2023-04-03T10:18:10;1.53;;;0.60;;
19877;SDS011;10101;52.204;9.910;2023-04-03T10:20:49;1.93;;;0.70;;
19877;SDS011;10101;52.204;9.910;2023-04-03T10:23:17;1.53;;;0.70;;
19877;SDS011;10101;52.204;9.910;2023-04-03T10:25:51;3.63;;;0.73;;
19877;SDS011;10101;52.204;9.910;2023-04-03T10:28:27;4.77;;;0.73;;
19877;SDS011;10101;52.204;9.910;2023-04-03T10:31:04;1.07;;;0.70;;
19877;SDS011;10101;52.204;9.910;2023-04-03T10:33:44;2.30;;;0.97;;
19877;SDS011;10101;52.204;9.910;2023-04-03T10:36:22;5.80;;;0.80;;
19877;SDS011;10101;52.204;9.910;2023-04-03T10:38:57;2.87;;;0.83;;
19877;SDS011;10101;52.204;9.910;2023-04-03T10:41:38;3.77;;;0.97;;
19877;SDS011;10101;52.204;9.910;2023-04-03T10:44:16;2.07;;;0.87;;
19877;SDS011;10101;52.204;9.910;2023-04-03T10:46:52;3.60;;;0.90;;
19877;SDS011;10101;52.204;9.910;2023-04-03T10:49:30;2.03;;;0.70;;
19877;SDS011;10101;52.204;9.910;2023-04-03T10:52:09;3.23;;;0.67;;
19877;SDS011;10101;52.204;9.910;2023-04-03T10:54:44;2.07;;;1.00;;
19877;SDS011;10101;52.204;9.910;2023-04-03T10:57:21;2.10;;;0.90;;
19877;SDS011;10101;52.204;9.910;2023-04-03T10:59:51;2.40;;;1.00;;
19877;SDS011;10101;52.204;9.910;2023-04-03T11:02:24;3.03;;;0.93;;
19877;SDS011;10101;52.204;9.910;2023-04-03T11:04:53;0.70;;;0.60;;
19877;SDS011;10101;52.204;9.910;2023-04-03T11:07:23;3.80;;;0.73;;
19877;SDS011;10101;52.204;9.910;2023-04-03T11:09:54;0.90;;;0.80;;
19877;SDS011;10101;52.204;9.910;2023-04-03T11:12:24;2.77;;;0.70;;
19877;SDS011;10101;52.204;9.910;2023-04-03T11:14:55;4.30;;;1.00;;
19877;SDS011;10101;52.204;9.910;2023-04-03T11:17:26;2.77;;;0.93;;
19877;SDS011;10101;52.204;9.910;2023-04-03T11:19:59;2.20;;;0.90;;
19877;SDS011;10101;52.204;9.910;2023-04-03T11:22:32;3.53;;;0.90;;
19877;SDS011;10101;52.204;9.910;2023-04-03T11:25:04;3.03;;;1.00;;
19877;SDS011;10101;52.204;9.910;2023-04-03T11:27:46;2.17;;;0.90;;
19877;SDS011;10101;52.204;9.910;2023-04-03T11:30:18;1.73;;;0.80;;
19877;SDS011;10101;52.204;9.910;2023-04-03T11:32:56;3.03;;;0.80;;
19877;SDS011;10101;52.204;9.910;2023-04-03T11:35:31;2.67;;;0.90;;
19877;SDS011;10101;52.204;9.910;2023-04-03T11:37:59;3.93;;;1.20;;
19877;SDS011;10101;52.204;9.910;2023-04-03T11:40:31;2.80;;;0.77;;
19877;SDS011;10101;52.204;9.910;2023-04-03T11:43:03;4.27;;;0.80;;
19877;SDS011;10101;52.204;9.910;2023-04-03T11:45:36;2.27;;;1.17;;
19877;SDS011;10101;52.204;9.910;2023-04-03T12:03:30;12.17;;;2.33;;
19877;SDS011;10101;52.204;9.910;2023-04-03T12:09:25;2.53;;;0.90;;
19877;SDS011;10101;52.204;9.910;2023-04-03T12:11:59;15.00;;;1.80;;
19877;SDS011;10101;52.204;9.910;2023-04-03T12:14:28;4.07;;;1.10;;
19877;SDS011;10101;52.204;9.910;2023-04-03T12:16:55;10.47;;;1.50;;
19877;SDS011;10101;52.204;9.910;2023-04-03T12:19:32;18.33;;;1.80;;
19877;SDS011;10101;52.204;9.910;2023-04-03T12:22:06;46.13;;;3.60;;
19877;SDS011;10101;52.204;9.910;2023-04-03T12:24:41;9.73;;;1.53;;
19877;SDS011;10101;52.204;9.910;2023-04-03T12:30:04;3.23;;;1.00;;
19877;SDS011;10101;52.204;9.910;2023-04-03T12:32:44;3.77;;;1.13;;
19877;SDS011;10101;52.204;9.910;2023-04-03T12:35:19;2.87;;;0.97;;
19877;SDS011;10101;52.204;9.910;2023-04-03T12:40:45;3.23;;;1.20;;
19877;SDS011;10101;52.204;9.910;2023-04-03T12:43:23;8.03;;;1.43;;
19877;SDS011;10101;52.204;9.910;2023-04-03T12:46:03;41.20;;;2.80;;
19877;SDS011;10101;52.204;9.910;2023-04-03T12:48:37;3.63;;;1.10;;
19877;SDS011;10101;52.204;9.910;2023-04-03T12:51:13;3.33;;;1.00;;
19877;SDS011;10101;52.204;9.910;2023-04-03T12:53:42;38.43;;;2.33;;
19877;SDS011;10101;52.204;9.910;2023-04-03T12:56:23;3.33;;;0.90;;
19877;SDS011;10101;52.204;9.910;2023-04-03T12:58:51;4.13;;;1.40;;
19877;SDS011;10101;52.204;9.910;2023-04-03T13:01:20;8.90;;;1.20;;
19877;SDS011;10101;52.204;9.910;2023-04-03T13:03:49;3.23;;;0.70;;
19877;SDS011;10101;52.204;9.910;2023-04-03T13:06:18;2.20;;;0.90;;
19877;SDS011;10101;52.204;9.910;2023-04-03T13:08:48;3.57;;;0.97;;
19877;SDS011;10101;52.204;9.910;2023-04-03T13:11:16;2.33;;;1.17;;
19877;SDS011;10101;52.204;9.910;2023-04-03T13:13:58;3.80;;;0.93;;
19877;SDS011;10101;52.204;9.910;2023-04-03T13:16:27;2.23;;;0.70;;
19877;SDS011;10101;52.204;9.910;2023-04-03T13:18:54;1.03;;;0.80;;
19877;SDS011;10101;52.204;9.910;2023-04-03T13:21:22;1.93;;;0.70;;
19877;SDS011;10101;52.204;9.910;2023-04-03T13:23:52;1.27;;;0.80;;
19877;SDS011;10101;52.204;9.910;2023-04-03T13:26:21;1.37;;;0.80;;
19877;SDS011;10101;52.204;9.910;2023-04-03T13:28:51;1.90;;;0.77;;
19877;SDS011;10101;52.204;9.910;2023-04-03T13:31:21;1.90;;;0.87;;
19877;SDS011;10101;52.204;9.910;2023-04-03T13:33:56;1.73;;;0.80;;
19877;SDS011;10101;52.204;9.910;2023-04-03T13:36:26;3.57;;;0.90;;
19877;SDS011;10101;52.204;9.910;2023-04-03T13:39:00;2.50;;;0.80;;
19877;SDS011;10101;52.204;9.910;2023-04-03T13:41:30;2.27;;;0.83;;
19877;SDS011;10101;52.204;9.910;2023-04-03T13:46:52;1.70;;;0.90;;
19877;SDS011;10101;52.204;9.910;2023-04-03T13:49:20;1.13;;;0.90;;
19877;SDS011;10101;52.204;9.910;2023-04-03T13:51:53;1.97;;;0.90;;
19877;SDS011;10101;52.204;9.910;2023-04-03T13:54:21;2.03;;;0.70;;
19877;SDS011;10101;52.204;9.910;2023-04-03T13:56:52;1.53;;;0.70;;
19877;SDS011;10101;52.204;9.910;2023-04-03T13:59:24;2.47;;;1.10;;
19877;SDS011;10101;52.204;9.910;2023-04-03T14:01:56;2.40;;;0.93;;
19877;SDS011;10101;52.204;9.910;2023-04-03T14:04:45;2.63;;;1.00;;
19877;SDS011;10101;52.204;9.910;2023-04-03T14:07:15;1.97;;;1.10;;
19877;SDS011;10101;52.204;9.910;2023-04-03T14:09:45;0.93;;;0.80;;
19877;SDS011;10101;52.204;9.910;2023-04-03T14:12:13;2.73;;;0.80;;
19877;SDS011;10101;52.204;9.910;2023-04-03T14:14:42;2.10;;;0.90;;
19877;SDS011;10101;52.204;9.910;2023-04-03T14:17:13;3.00;;;0.77;;
19877;SDS011;10101;52.204;9.910;2023-04-03T14:19:42;2.80;;;0.97;;
19877;SDS011;10101;52.204;9.910;2023-04-03T14:22:13;1.20;;;0.67;;
19877;SDS011;10101;52.204;9.910;2023-04-03T14:24:42;1.63;;;0.90;;
19877;SDS011;10101;52.204;9.910;2023-04-03T14:27:11;1.80;;;0.70;;
19877;SDS011;10101;52.204;9.910;2023-04-03T14:29:42;2.70;;;0.80;;
19877;SDS011;10101;52.204;9.910;2023-04-03T14:32:15;2.77;;;0.87;;
19877;SDS011;10101;52.204;9.910;2023-04-03T14:34:44;1.13;;;0.70;;
19877;SDS011;10101;52.204;9.910;2023-04-03T14:37:12;1.60;;;0.93;;
19877;SDS011;10101;52.204;9.910;2023-04-03T14:39:40;1.80;;;0.90;;
19877;SDS011;10101;52.204;9.910;2023-04-03T14:42:10;2.53;;;0.90;;
19877;SDS011;10101;52.204;9.910;2023-04-03T14:44:39;2.63;;;0.73;;
19877;SDS011;10101;52.204;9.910;2023-04-03T14:47:08;2.53;;;0.97;;
19877;SDS011;10101;52.204;9.910;2023-04-03T14:49:38;1.17;;;0.80;;
19877;SDS011;10101;52.204;9.910;2023-04-03T14:52:05;3.03;;;0.90;;
19877;SDS011;10101;52.204;9.910;2023-04-03T14:54:32;4.07;;;0.90;;
19877;SDS011;10101;52.204;9.910;2023-04-03T14:56:59;2.20;;;1.17;;
19877;SDS011;10101;52.204;9.910;2023-04-03T14:59:29;1.70;;;1.00;;
19877;SDS011;10101;52.204;9.910;2023-04-03T15:01:57;2.07;;;0.70;;
19877;SDS011;10101;52.204;9.910;2023-04-03T15:04:24;2.53;;;0.73;;
19877;SDS011;10101;52.204;9.910;2023-04-03T15:06:54;2.53;;;0.90;;
19877;SDS011;10101;52.204;9.910;2023-04-03T15:09:21;2.43;;;0.70;;
19877;SDS011;10101;52.204;9.910;2023-04-03T15:11:49;1.63;;;0.80;;
19877;SDS011;10101;52.204;9.910;2023-04-03T15:14:18;3.53;;;0.87;;
19877;SDS011;10101;52.204;9.910;2023-04-03T15:16:45;2.47;;;1.00;;
19877;SDS011;10101;52.204;9.910;2023-04-03T15:19:12;9.30;;;0.90;;
19877;SDS011;10101;52.204;9.910;2023-04-03T15:21:39;2.93;;;1.13;;
19877;SDS011;10101;52.204;9.910;2023-04-03T15:24:08;1.80;;;0.90;;
19877;SDS011;10101;52.204;9.910;2023-04-03T15:26:35;1.90;;;0.63;;
19877;SDS011;10101;52.204;9.910;2023-04-03T15:29:04;1.13;;;0.80;;